sensor_id;sensor_type;location;lat;lon;timestamp;pressure;altitude;pressure_sealevel;temperature;humidity
74529;BME280;63009;52.584;5.932;2024-02-16T00:00:22;50038.03;;;-144.39;80.84
74529;BME280;63009;52.584;5.932;2024-02-16T00:02:48;50028.03;;;-144.39;80.84
74529;BME280;63009;52.584;5.932;2024-02-16T00:05:13;50022.00;;;-144.39;80.76
74529;BME280;63009;52.584;5.932;2024-02-16T00:07:39;50058.09;;;-144.39;80.80
74529;BME280;63009;52.584;5.932;2024-02-16T00:10:06;50066.13;;;-144.39;80.70
74529;BME280;63009;52.584;5.932;2024-02-16T00:12:32;50046.06;;;-144.39;80.38
74529;BME280;63009;52.584;5.932;2024-02-16T00:14:58;50032.03;;;-144.39;80.47
74529;BME280;63009;52.584;5.932;2024-02-16T00:17:25;50015.97;;;-144.39;80.46
74529;BME280;63009;52.584;5.932;2024-02-16T00:19:52;50020.00;;;-144.39;80.12
74529;BME280;63009;52.584;5.932;2024-02-16T00:22:18;50020.00;;;-144.39;80.30
74529;BME280;63009;52.584;5.932;2024-02-16T00:24:44;50052.09;;;-144.39;79.81
74529;BME280;63009;52.584;5.932;2024-02-16T00:27:09;50048.06;;;-144.39;79.87
74529;BME280;63009;52.584;5.932;2024-02-16T00:29:35;50046.06;;;-144.39;79.90
74529;BME280;63009;52.584;5.932;2024-02-16T00:32:00;50064.13;;;-144.39;79.96
74529;BME280;63009;52.584;5.932;2024-02-16T00:34:26;50074.16;;;-144.39;80.21
74529;BME280;63009;52.584;5.932;2024-02-16T00:36:51;50064.13;;;-144.39;80.14
74529;BME280;63009;52.584;5.932;2024-02-16T00:39:17;50060.09;;;-144.39;80.46
74529;BME280;63009;52.584;5.932;2024-02-16T00:41:43;50082.16;;;-144.39;80.31
74529;BME280;63009;52.584;5.932;2024-02-16T00:44:08;50022.00;;;-144.39;80.14
74529;BME280;63009;52.584;5.932;2024-02-16T00:46:35;50034.03;;;-144.39;80.46
74529;BME280;63009;52.584;5.932;2024-02-16T00:49:01;50064.13;;;-144.39;80.34
74529;BME280;63009;52.584;5.932;2024-02-16T00:51:26;50028.03;;;-144.39;80.44
74529;BME280;63009;52.584;5.932;2024-02-16T00:53:52;50032.03;;;-144.39;80.24
74529;BME280;63009;52.584;5.932;2024-02-16T00:56:18;50060.09;;;-144.39;80.52
74529;BME280;63009;52.584;5.932;2024-02-16T00:58:43;50028.03;;;-144.39;80.77
74529;BME280;63009;52.584;5.932;2024-02-16T01:01:09;49993.91;;;-144.39;80.67
74529;BME280;63009;52.584;5.932;2024-02-16T01:03:37;50034.03;;;-144.39;80.49
74529;BME280;63009;52.584;5.932;2024-02-16T01:06:03;50032.03;;;-144.39;80.12
74529;BME280;63009;52.584;5.932;2024-02-16T01:08:30;50036.03;;;-144.39;80.23
74529;BME280;63009;52.584;5.932;2024-02-16T01:10:56;50064.13;;;-144.39;80.45
74529;BME280;63009;52.584;5.932;2024-02-16T01:13:21;50028.03;;;-144.39;80.69
74529;BME280;63009;52.584;5.932;2024-02-16T01:15:47;50011.97;;;-144.39;80.55
74529;BME280;63009;52.584;5.932;2024-02-16T01:18:12;50064.13;;;-144.39;80.51
74529;BME280;63009;52.584;5.932;2024-02-16T01:20:38;50044.06;;;-144.39;80.60
74529;BME280;63009;52.584;5.932;2024-02-16T01:23:04;50042.06;;;-144.39;80.67
74529;BME280;63009;52.584;5.932;2024-02-16T01:25:30;50024.00;;;-144.39;80.70
74529;BME280;63009;52.584;5.932;2024-02-16T01:27:56;50015.97;;;-144.39;80.88
74529;BME280;63009;52.584;5.932;2024-02-16T01:30:23;50036.03;;;-144.39;80.78
74529;BME280;63009;52.584;5.932;2024-02-16T01:32:48;50058.09;;;-144.39;80.80
74529;BME280;63009;52.584;5.932;2024-02-16T01:35:14;50040.06;;;-144.39;80.72
74529;BME280;63009;52.584;5.932;2024-02-16T01:37:40;50046.06;;;-144.39;80.83
74529;BME280;63009;52.584;5.932;2024-02-16T01:40:08;50070.13;;;-144.39;80.89
74529;BME280;63009;52.584;5.932;2024-02-16T01:42:34;50046.06;;;-144.39;80.72
74529;BME280;63009;52.584;5.932;2024-02-16T01:44:59;50030.03;;;-144.39;80.67
74529;BME280;63009;52.584;5.932;2024-02-16T01:47:26;50032.03;;;-144.39;81.13
74529;BME280;63009;52.584;5.932;2024-02-16T01:49:51;50044.06;;;-144.39;81.10
74529;BME280;63009;52.584;5.932;2024-02-16T01:52:17;50054.09;;;-144.39;80.87
74529;BME280;63009;52.584;5.932;2024-02-16T01:54:42;50003.94;;;-144.39;81.08
74529;BME280;63009;52.584;5.932;2024-02-16T01:57:09;50044.06;;;-144.39;81.16
74529;BME280;63009;52.584;5.932;2024-02-16T01:59:36;50078.16;;;-144.39;81.32
74529;BME280;63009;52.584;5.932;2024-02-16T02:02:02;50048.06;;;-144.39;81.31
74529;BME280;63009;52.584;5.932;2024-02-16T02:04:27;50028.03;;;-144.39;81.16
74529;BME280;63009;52.584;5.932;2024-02-16T02:06:53;50058.09;;;-144.39;81.51
74529;BME280;63009;52.584;5.932;2024-02-16T02:09:19;50056.09;;;-144.39;81.54
74529;BME280;63009;52.584;5.932;2024-02-16T02:11:44;50062.13;;;-144.39;81.61
74529;BME280;63009;52.584;5.932;2024-02-16T02:14:10;50050.09;;;-144.39;81.44
74529;BME280;63009;52.584;5.932;2024-02-16T02:16:35;50044.06;;;-144.39;81.55
74529;BME280;63009;52.584;5.932;2024-02-16T02:19:02;50030.03;;;-144.39;81.43
74529;BME280;63009;52.584;5.932;2024-02-16T02:21:27;50050.09;;;-144.39;81.67
74529;BME280;63009;52.584;5.932;2024-02-16T02:23:53;50034.03;;;-144.39;81.93
74529;BME280;63009;52.584;5.932;2024-02-16T02:26:18;50024.00;;;-144.39;81.88
74529;BME280;63009;52.584;5.932;2024-02-16T02:28:44;50030.03;;;-144.39;81.74
74529;BME280;63009;52.584;5.932;2024-02-16T02:31:09;50044.06;;;-144.39;82.10
74529;BME280;63009;52.584;5.932;2024-02-16T02:33:34;50062.13;;;-144.39;81.82
74529;BME280;63009;52.584;5.932;2024-02-16T02:36:00;50070.13;;;-144.39;81.79
74529;BME280;63009;52.584;5.932;2024-02-16T02:38:26;50052.09;;;-144.39;81.90
74529;BME280;63009;52.584;5.932;2024-02-16T02:40:52;50011.97;;;-144.39;82.01
74529;BME280;63009;52.584;5.932;2024-02-16T02:43:18;50024.00;;;-144.39;81.97
74529;BME280;63009;52.584;5.932;2024-02-16T02:45:44;50040.06;;;-144.39;82.10
74529;BME280;63009;52.584;5.932;2024-02-16T02:48:10;50040.06;;;-144.39;82.38
74529;BME280;63009;52.584;5.932;2024-02-16T02:50:35;50066.13;;;-144.39;82.16
74529;BME280;63009;52.584;5.932;2024-02-16T02:53:01;50072.16;;;-144.39;82.14
74529;BME280;63009;52.584;5.932;2024-02-16T02:55:26;50072.16;;;-144.39;82.27
74529;BME280;63009;52.584;5.932;2024-02-16T02:57:52;50060.09;;;-144.39;82.36
74529;BME280;63009;52.584;5.932;2024-02-16T03:00:17;50036.03;;;-144.39;82.32
74529;BME280;63009;52.584;5.932;2024-02-16T03:02:43;50056.09;;;-144.39;82.31
74529;BME280;63009;52.584;5.932;2024-02-16T03:05:10;50040.06;;;-144.39;82.31
74529;BME280;63009;52.584;5.932;2024-02-16T03:07:36;50048.06;;;-144.39;82.54
74529;BME280;63009;52.584;5.932;2024-02-16T03:10:02;50058.09;;;-144.39;82.43
74529;BME280;63009;52.584;5.932;2024-02-16T03:12:29;50058.09;;;-144.39;82.64
74529;BME280;63009;52.584;5.932;2024-02-16T03:14:55;50056.09;;;-144.39;82.41
74529;BME280;63009;52.584;5.932;2024-02-16T03:17:20;50048.06;;;-144.39;82.42
74529;BME280;63009;52.584;5.932;2024-02-16T03:19:45;50032.03;;;-144.39;82.57
74529;BME280;63009;52.584;5.932;2024-02-16T03:22:12;50086.19;;;-144.39;82.39
74529;BME280;63009;52.584;5.932;2024-02-16T03:24:38;50034.03;;;-144.39;82.35
74529;BME280;63009;52.584;5.932;2024-02-16T03:27:03;50024.00;;;-144.39;82.45
74529;BME280;63009;52.584;5.932;2024-02-16T03:29:29;50060.09;;;-144.39;82.37
74529;BME280;63009;52.584;5.932;2024-02-16T03:31:54;50040.06;;;-144.39;82.28
74529;BME280;63009;52.584;5.932;2024-02-16T03:34:20;50026.00;;;-144.39;82.16
74529;BME280;63009;52.584;5.932;2024-02-16T03:36:45;50032.03;;;-144.39;82.40
74529;BME280;63009;52.584;5.932;2024-02-16T03:39:10;50036.03;;;-144.39;82.33
74529;BME280;63009;52.584;5.932;2024-02-16T03:41:36;50005.97;;;-144.39;82.20
74529;BME280;63009;52.584;5.932;2024-02-16T03:44:01;50082.16;;;-144.39;82.43
74529;BME280;63009;52.584;5.932;2024-02-16T03:46:27;50076.16;;;-144.39;82.46
74529;BME280;63009;52.584;5.932;2024-02-16T03:48:53;50060.09;;;-144.39;82.79
74529;BME280;63009;52.584;5.932;2024-02-16T03:51:18;50080.16;;;-144.39;82.82
74529;BME280;63009;52.584;5.932;2024-02-16T03:53:44;50018.00;;;-144.39;82.84
74529;BME280;63009;52.584;5.932;2024-02-16T03:56:12;50026.00;;;-144.39;82.76
74529;BME280;63009;52.584;5.932;2024-02-16T03:58:43;50020.00;;;-144.39;83.03
74529;BME280;63009;52.584;5.932;2024-02-16T04:01:08;50052.09;;;-144.39;83.00
74529;BME280;63009;52.584;5.932;2024-02-16T04:03:34;50040.06;;;-144.39;83.02
74529;BME280;63009;52.584;5.932;2024-02-16T04:06:00;50026.00;;;-144.39;82.90
74529;BME280;63009;52.584;5.932;2024-02-16T04:08:26;50036.03;;;-144.39;82.98
74529;BME280;63009;52.584;5.932;2024-02-16T04:10:53;50036.03;;;-144.39;83.13
74529;BME280;63009;52.584;5.932;2024-02-16T04:13:18;50056.09;;;-144.39;82.99
74529;BME280;63009;52.584;5.932;2024-02-16T04:15:44;50044.06;;;-144.39;83.09
74529;BME280;63009;52.584;5.932;2024-02-16T04:18:10;50036.03;;;-144.39;82.93
74529;BME280;63009;52.584;5.932;2024-02-16T04:20:36;50048.06;;;-144.39;83.22
74529;BME280;63009;52.584;5.932;2024-02-16T04:23:01;50048.06;;;-144.39;83.20
74529;BME280;63009;52.584;5.932;2024-02-16T04:25:26;50040.06;;;-144.39;83.03
74529;BME280;63009;52.584;5.932;2024-02-16T04:27:52;50024.00;;;-144.39;83.02
74529;BME280;63009;52.584;5.932;2024-02-16T04:30:18;50013.97;;;-144.39;83.02
74529;BME280;63009;52.584;5.932;2024-02-16T04:32:46;50032.03;;;-144.39;82.76
74529;BME280;63009;52.584;5.932;2024-02-16T04:35:11;50040.06;;;-144.39;82.70
74529;BME280;63009;52.584;5.932;2024-02-16T04:37:38;50011.97;;;-144.39;82.95
74529;BME280;63009;52.584;5.932;2024-02-16T04:40:05;50030.03;;;-144.39;82.92
74529;BME280;63009;52.584;5.932;2024-02-16T04:42:31;50028.03;;;-144.39;82.51
74529;BME280;63009;52.584;5.932;2024-02-16T04:44:56;50038.03;;;-144.39;82.73
74529;BME280;63009;52.584;5.932;2024-02-16T04:47:21;50042.06;;;-144.39;82.39
74529;BME280;63009;52.584;5.932;2024-02-16T04:49:47;50050.09;;;-144.39;82.63
74529;BME280;63009;52.584;5.932;2024-02-16T04:52:12;50030.03;;;-144.39;82.81
74529;BME280;63009;52.584;5.932;2024-02-16T04:54:38;50056.09;;;-144.39;82.52
74529;BME280;63009;52.584;5.932;2024-02-16T04:57:05;50032.03;;;-144.39;82.62
74529;BME280;63009;52.584;5.932;2024-02-16T04:59:30;50013.97;;;-144.39;82.73
74529;BME280;63009;52.584;5.932;2024-02-16T05:01:56;50056.09;;;-144.39;82.67
74529;BME280;63009;52.584;5.932;2024-02-16T05:04:22;50048.06;;;-144.39;82.51
74529;BME280;63009;52.584;5.932;2024-02-16T05:06:47;50046.06;;;-144.39;82.71
74529;BME280;63009;52.584;5.932;2024-02-16T05:09:13;50060.09;;;-144.39;82.75
74529;BME280;63009;52.584;5.932;2024-02-16T05:11:44;50068.13;;;-144.39;82.37
74529;BME280;63009;52.584;5.932;2024-02-16T05:14:10;50052.09;;;-144.39;82.41
74529;BME280;63009;52.584;5.932;2024-02-16T05:16:43;50058.09;;;-144.39;82.01
74529;BME280;63009;52.584;5.932;2024-02-16T05:19:09;50052.09;;;-144.39;82.44
74529;BME280;63009;52.584;5.932;2024-02-16T05:21:34;50066.13;;;-144.39;82.10
74529;BME280;63009;52.584;5.932;2024-02-16T05:24:03;50052.09;;;-144.39;82.24
74529;BME280;63009;52.584;5.932;2024-02-16T05:26:28;50020.00;;;-144.39;82.10
74529;BME280;63009;52.584;5.932;2024-02-16T05:28:54;50062.13;;;-144.39;82.14
74529;BME280;63009;52.584;5.932;2024-02-16T05:31:19;50064.13;;;-144.39;82.15
74529;BME280;63009;52.584;5.932;2024-02-16T05:33:47;50066.13;;;-144.39;81.75
74529;BME280;63009;52.584;5.932;2024-02-16T05:36:15;50026.00;;;-144.39;81.88
74529;BME280;63009;52.584;5.932;2024-02-16T05:38:41;50052.09;;;-144.39;81.63
74529;BME280;63009;52.584;5.932;2024-02-16T05:41:08;50046.06;;;-144.39;81.49
74529;BME280;63009;52.584;5.932;2024-02-16T05:43:34;50094.22;;;-144.39;81.58
74529;BME280;63009;52.584;5.932;2024-02-16T05:45:59;50032.03;;;-144.39;81.74
74529;BME280;63009;52.584;5.932;2024-02-16T05:48:25;50052.09;;;-144.39;81.71
74529;BME280;63009;52.584;5.932;2024-02-16T05:50:57;50050.09;;;-144.39;81.63
74529;BME280;63009;52.584;5.932;2024-02-16T05:53:25;50050.09;;;-144.39;81.85
74529;BME280;63009;52.584;5.932;2024-02-16T05:55:50;50040.06;;;-144.39;81.59
74529;BME280;63009;52.584;5.932;2024-02-16T05:58:16;50052.09;;;-144.39;81.61
74529;BME280;63009;52.584;5.932;2024-02-16T06:00:42;50052.09;;;-144.39;81.69
74529;BME280;63009;52.584;5.932;2024-02-16T06:03:08;50036.03;;;-144.39;81.63
74529;BME280;63009;52.584;5.932;2024-02-16T06:05:33;50044.06;;;-144.39;82.19
74529;BME280;63009;52.584;5.932;2024-02-16T06:07:59;50072.16;;;-144.39;82.46
74529;BME280;63009;52.584;5.932;2024-02-16T06:10:24;50015.97;;;-144.39;82.39
74529;BME280;63009;52.584;5.932;2024-02-16T06:12:50;50060.09;;;-144.39;82.23
74529;BME280;63009;52.584;5.932;2024-02-16T06:15:15;50034.03;;;-144.39;82.06
74529;BME280;63009;52.584;5.932;2024-02-16T06:17:41;50068.13;;;-144.39;82.10
74529;BME280;63009;52.584;5.932;2024-02-16T06:20:07;50040.06;;;-144.39;82.11
74529;BME280;63009;52.584;5.932;2024-02-16T06:22:36;50086.19;;;-144.39;82.24
74529;BME280;63009;52.584;5.932;2024-02-16T06:25:01;50044.06;;;-144.39;82.48
74529;BME280;63009;52.584;5.932;2024-02-16T06:27:27;50028.03;;;-144.39;82.64
74529;BME280;63009;52.584;5.932;2024-02-16T06:29:53;50050.09;;;-144.39;82.52
74529;BME280;63009;52.584;5.932;2024-02-16T06:32:18;50026.00;;;-144.39;82.72
74529;BME280;63009;52.584;5.932;2024-02-16T06:34:45;50044.06;;;-144.39;82.92
74529;BME280;63009;52.584;5.932;2024-02-16T06:37:13;50052.09;;;-144.39;83.01
74529;BME280;63009;52.584;5.932;2024-02-16T06:39:39;50068.13;;;-144.39;83.13
74529;BME280;63009;52.584;5.932;2024-02-16T06:42:05;50022.00;;;-144.39;83.03
74529;BME280;63009;52.584;5.932;2024-02-16T06:44:30;50046.06;;;-144.39;82.86
74529;BME280;63009;52.584;5.932;2024-02-16T06:46:56;50032.03;;;-144.39;82.69
74529;BME280;63009;52.584;5.932;2024-02-16T06:49:21;50048.06;;;-144.39;82.73
74529;BME280;63009;52.584;5.932;2024-02-16T06:51:47;50032.03;;;-144.39;82.43
74529;BME280;63009;52.584;5.932;2024-02-16T06:54:13;50032.03;;;-144.39;82.39
74529;BME280;63009;52.584;5.932;2024-02-16T06:56:40;50048.06;;;-144.39;82.36
74529;BME280;63009;52.584;5.932;2024-02-16T06:59:05;50064.13;;;-144.39;82.24
74529;BME280;63009;52.584;5.932;2024-02-16T07:01:31;50018.00;;;-144.39;81.78
74529;BME280;63009;52.584;5.932;2024-02-16T07:03:57;50022.00;;;-144.39;81.27
74529;BME280;63009;52.584;5.932;2024-02-16T07:06:22;50052.09;;;-144.39;81.45
74529;BME280;63009;52.584;5.932;2024-02-16T07:08:48;50062.13;;;-144.39;81.18
74529;BME280;63009;52.584;5.932;2024-02-16T07:11:13;50070.13;;;-144.39;81.46
74529;BME280;63009;52.584;5.932;2024-02-16T07:13:40;50050.09;;;-144.39;81.54
74529;BME280;63009;52.584;5.932;2024-02-16T07:16:06;50064.13;;;-144.39;81.84
74529;BME280;63009;52.584;5.932;2024-02-16T07:18:34;50044.06;;;-144.39;81.69
74529;BME280;63009;52.584;5.932;2024-02-16T07:21:00;50026.00;;;-144.39;81.05
74529;BME280;63009;52.584;5.932;2024-02-16T07:23:26;50028.03;;;-144.39;80.94
74529;BME280;63009;52.584;5.932;2024-02-16T07:25:51;50024.00;;;-144.39;80.92
74529;BME280;63009;52.584;5.932;2024-02-16T07:28:20;50042.06;;;-144.39;80.94
74529;BME280;63009;52.584;5.932;2024-02-16T07:30:46;50020.00;;;-144.39;80.55
74529;BME280;63009;52.584;5.932;2024-02-16T07:33:12;50038.03;;;-144.39;80.19
74529;BME280;63009;52.584;5.932;2024-02-16T07:35:37;50044.06;;;-144.39;80.91
74529;BME280;63009;52.584;5.932;2024-02-16T07:38:05;50046.06;;;-144.39;80.87
74529;BME280;63009;52.584;5.932;2024-02-16T07:40:31;50022.00;;;-144.39;80.77
74529;BME280;63009;52.584;5.932;2024-02-16T07:42:57;50038.03;;;-144.39;81.11
74529;BME280;63009;52.584;5.932;2024-02-16T07:45:25;50070.13;;;-144.39;80.84
74529;BME280;63009;52.584;5.932;2024-02-16T07:47:51;50001.94;;;-144.39;80.89
74529;BME280;63009;52.584;5.932;2024-02-16T07:50:20;50020.00;;;-144.39;81.10
74529;BME280;63009;52.584;5.932;2024-02-16T07:52:46;50011.97;;;-144.39;81.29
74529;BME280;63009;52.584;5.932;2024-02-16T07:55:12;49977.88;;;-144.39;80.98
74529;BME280;63009;52.584;5.932;2024-02-16T07:57:40;50062.13;;;-144.39;80.91
74529;BME280;63009;52.584;5.932;2024-02-16T08:00:06;50018.00;;;-144.39;80.97
74529;BME280;63009;52.584;5.932;2024-02-16T08:02:32;50070.13;;;-144.39;80.86
74529;BME280;63009;52.584;5.932;2024-02-16T08:04:58;50013.97;;;-144.39;80.89
74529;BME280;63009;52.584;5.932;2024-02-16T08:07:24;50015.97;;;-144.39;80.80
74529;BME280;63009;52.584;5.932;2024-02-16T08:09:50;50009.97;;;-144.39;80.58
74529;BME280;63009;52.584;5.932;2024-02-16T08:12:15;50044.06;;;-144.39;80.74
74529;BME280;63009;52.584;5.932;2024-02-16T08:14:42;50003.94;;;-144.39;80.80
74529;BME280;63009;52.584;5.932;2024-02-16T08:17:08;50038.03;;;-144.39;80.56
74529;BME280;63009;52.584;5.932;2024-02-16T08:19:36;50040.06;;;-144.39;80.76
74529;BME280;63009;52.584;5.932;2024-02-16T08:22:06;50028.03;;;-144.39;80.62
74529;BME280;63009;52.584;5.932;2024-02-16T08:24:34;50028.03;;;-144.39;80.50
74529;BME280;63009;52.584;5.932;2024-02-16T08:26:59;50046.06;;;-144.39;80.62
74529;BME280;63009;52.584;5.932;2024-02-16T08:29:25;50024.00;;;-144.39;80.16
74529;BME280;63009;52.584;5.932;2024-02-16T08:31:51;50054.09;;;-144.39;79.64
74529;BME280;63009;52.584;5.932;2024-02-16T08:34:17;50011.97;;;-144.39;79.70
74529;BME280;63009;52.584;5.932;2024-02-16T08:36:46;50058.09;;;-144.39;79.02
74529;BME280;63009;52.584;5.932;2024-02-16T08:39:12;50034.03;;;-144.39;78.82
74529;BME280;63009;52.584;5.932;2024-02-16T08:41:38;50038.03;;;-144.39;78.95
74529;BME280;63009;52.584;5.932;2024-02-16T08:44:04;50048.06;;;-144.39;78.74
74529;BME280;63009;52.584;5.932;2024-02-16T08:46:29;50028.03;;;-144.39;78.58
74529;BME280;63009;52.584;5.932;2024-02-16T08:48:55;50050.09;;;-144.39;78.40
74529;BME280;63009;52.584;5.932;2024-02-16T08:51:21;50024.00;;;-144.39;78.00
74529;BME280;63009;52.584;5.932;2024-02-16T08:53:46;50003.94;;;-144.39;77.84
74529;BME280;63009;52.584;5.932;2024-02-16T08:56:12;50028.03;;;-144.39;77.74
74529;BME280;63009;52.584;5.932;2024-02-16T08:58:38;50024.00;;;-144.39;77.36
74529;BME280;63009;52.584;5.932;2024-02-16T09:01:04;50042.06;;;-144.39;77.45
74529;BME280;63009;52.584;5.932;2024-02-16T09:03:30;50003.94;;;-144.39;76.95
74529;BME280;63009;52.584;5.932;2024-02-16T09:06:02;50034.03;;;-144.39;77.45
74529;BME280;63009;52.584;5.932;2024-02-16T09:08:27;50040.06;;;-144.39;77.40
74529;BME280;63009;52.584;5.932;2024-02-16T09:10:58;50036.03;;;-144.39;77.21
74529;BME280;63009;52.584;5.932;2024-02-16T09:13:24;50034.03;;;-144.39;77.23
74529;BME280;63009;52.584;5.932;2024-02-16T09:15:49;50060.09;;;-144.39;77.11
74529;BME280;63009;52.584;5.932;2024-02-16T09:18:17;50046.06;;;-144.39;77.30
74529;BME280;63009;52.584;5.932;2024-02-16T09:20:48;50011.97;;;-144.39;76.73
74529;BME280;63009;52.584;5.932;2024-02-16T09:23:14;50032.03;;;-144.39;77.00
74529;BME280;63009;52.584;5.932;2024-02-16T09:25:39;50030.03;;;-144.39;77.11
74529;BME280;63009;52.584;5.932;2024-02-16T09:28:06;50030.03;;;-144.39;76.77
74529;BME280;63009;52.584;5.932;2024-02-16T09:30:32;50044.06;;;-144.39;76.68
74529;BME280;63009;52.584;5.932;2024-02-16T09:32:58;50022.00;;;-144.39;76.72
74529;BME280;63009;52.584;5.932;2024-02-16T09:35:23;50009.97;;;-144.39;76.42
74529;BME280;63009;52.584;5.932;2024-02-16T09:37:49;50020.00;;;-144.39;76.34
74529;BME280;63009;52.584;5.932;2024-02-16T09:40:14;50020.00;;;-144.39;76.23
74529;BME280;63009;52.584;5.932;2024-02-16T09:42:40;50030.03;;;-144.39;76.27
74529;BME280;63009;52.584;5.932;2024-02-16T09:45:07;50034.03;;;-144.39;77.03
74529;BME280;63009;52.584;5.932;2024-02-16T09:47:33;50038.03;;;-144.39;76.67
74529;BME280;63009;52.584;5.932;2024-02-16T09:50:01;50032.03;;;-144.39;76.66
74529;BME280;63009;52.584;5.932;2024-02-16T09:52:27;50018.00;;;-144.39;76.86
74529;BME280;63009;52.584;5.932;2024-02-16T09:54:53;50030.03;;;-144.39;77.06
74529;BME280;63009;52.584;5.932;2024-02-16T09:57:18;50013.97;;;-144.39;75.71
74529;BME280;63009;52.584;5.932;2024-02-16T09:59:44;50032.03;;;-144.39;76.34
74529;BME280;63009;52.584;5.932;2024-02-16T10:02:12;50026.00;;;-144.39;76.14
74529;BME280;63009;52.584;5.932;2024-02-16T10:04:37;50020.00;;;-144.39;76.20
74529;BME280;63009;52.584;5.932;2024-02-16T10:07:03;50048.06;;;-144.39;76.29
74529;BME280;63009;52.584;5.932;2024-02-16T10:09:30;49999.94;;;-144.39;76.38
74529;BME280;63009;52.584;5.932;2024-02-16T10:11:57;50030.03;;;-144.39;76.87
74529;BME280;63009;52.584;5.932;2024-02-16T10:14:23;50013.97;;;-144.39;77.17
74529;BME280;63009;52.584;5.932;2024-02-16T10:17:04;49989.91;;;-144.39;77.51
74529;BME280;63009;52.584;5.932;2024-02-16T10:19:30;50040.06;;;-144.39;78.31
74529;BME280;63009;52.584;5.932;2024-02-16T10:22:08;49991.91;;;-144.39;78.20
74529;BME280;63009;52.584;5.932;2024-02-16T10:24:34;50024.00;;;-144.39;78.79
74529;BME280;63009;52.584;5.932;2024-02-16T10:26:59;49977.88;;;-144.39;78.53
74529;BME280;63009;52.584;5.932;2024-02-16T10:29:27;50005.97;;;-144.39;78.34
74529;BME280;63009;52.584;5.932;2024-02-16T10:31:52;50009.97;;;-144.39;77.81
74529;BME280;63009;52.584;5.932;2024-02-16T10:34:19;50028.03;;;-144.39;78.47
74529;BME280;63009;52.584;5.932;2024-02-16T10:36:48;50024.00;;;-144.39;78.30
74529;BME280;63009;52.584;5.932;2024-02-16T10:39:14;50032.03;;;-144.39;78.04
74529;BME280;63009;52.584;5.932;2024-02-16T10:41:41;50028.03;;;-144.39;78.49
74529;BME280;63009;52.584;5.932;2024-02-16T10:44:07;49975.88;;;-144.39;79.21
74529;BME280;63009;52.584;5.932;2024-02-16T10:46:33;50048.06;;;-144.39;78.85
74529;BME280;63009;52.584;5.932;2024-02-16T10:48:58;50036.03;;;-144.39;78.98
74529;BME280;63009;52.584;5.932;2024-02-16T10:51:30;50060.09;;;-144.39;78.84
74529;BME280;63009;52.584;5.932;2024-02-16T10:53:57;50011.97;;;-144.39;79.17
74529;BME280;63009;52.584;5.932;2024-02-16T10:56:32;50024.00;;;-144.39;79.04
74529;BME280;63009;52.584;5.932;2024-02-16T10:59:01;50040.06;;;-144.39;79.29
74529;BME280;63009;52.584;5.932;2024-02-16T11:01:27;50015.97;;;-144.39;80.19
74529;BME280;63009;52.584;5.932;2024-02-16T11:04:01;49987.91;;;-144.39;80.55
74529;BME280;63009;52.584;5.932;2024-02-16T11:06:27;50026.00;;;-144.39;81.85
74529;BME280;63009;52.584;5.932;2024-02-16T11:08:53;50001.94;;;-144.39;82.34
74529;BME280;63009;52.584;5.932;2024-02-16T11:11:25;50028.03;;;-144.39;83.09
74529;BME280;63009;52.584;5.932;2024-02-16T11:13:54;49999.94;;;-144.39;83.72
74529;BME280;63009;52.584;5.932;2024-02-16T11:16:20;49995.94;;;-144.39;84.81
74529;BME280;63009;52.584;5.932;2024-02-16T11:18:47;50038.03;;;-144.39;84.89
74529;BME280;63009;52.584;5.932;2024-02-16T11:21:17;50032.03;;;-144.39;85.65
74529;BME280;63009;52.584;5.932;2024-02-16T11:23:44;50044.06;;;-144.39;86.58
74529;BME280;63009;52.584;5.932;2024-02-16T11:26:10;50003.94;;;-144.39;86.88
74529;BME280;63009;52.584;5.932;2024-02-16T11:28:42;50060.09;;;-144.39;86.87
74529;BME280;63009;52.584;5.932;2024-02-16T11:31:08;49991.91;;;-144.39;87.55
74529;BME280;63009;52.584;5.932;2024-02-16T11:33:34;50015.97;;;-144.39;87.55
74529;BME280;63009;52.584;5.932;2024-02-16T11:36:01;50009.97;;;-144.39;87.80
74529;BME280;63009;52.584;5.932;2024-02-16T11:38:27;50015.97;;;-144.39;88.23
74529;BME280;63009;52.584;5.932;2024-02-16T11:41:04;50009.97;;;-144.39;88.02
74529;BME280;63009;52.584;5.932;2024-02-16T11:43:30;50030.03;;;-144.39;88.03
74529;BME280;63009;52.584;5.932;2024-02-16T11:45:56;50005.97;;;-144.39;88.52
74529;BME280;63009;52.584;5.932;2024-02-16T11:48:25;50005.97;;;-144.39;88.59
74529;BME280;63009;52.584;5.932;2024-02-16T11:50:59;50024.00;;;-144.39;89.00
74529;BME280;63009;52.584;5.932;2024-02-16T11:53:25;50032.03;;;-144.39;88.62
74529;BME280;63009;52.584;5.932;2024-02-16T11:55:51;50044.06;;;-144.39;88.82
74529;BME280;63009;52.584;5.932;2024-02-16T11:58:17;50024.00;;;-144.39;89.02
74529;BME280;63009;52.584;5.932;2024-02-16T12:00:46;50028.03;;;-144.39;89.02
74529;BME280;63009;52.584;5.932;2024-02-16T12:03:27;50024.00;;;-144.39;89.20
74529;BME280;63009;52.584;5.932;2024-02-16T12:05:54;50062.13;;;-144.39;89.42
74529;BME280;63009;52.584;5.932;2024-02-16T12:08:20;50028.03;;;-144.39;89.54
74529;BME280;63009;52.584;5.932;2024-02-16T12:10:47;49997.94;;;-144.39;89.13
74529;BME280;63009;52.584;5.932;2024-02-16T12:13:18;50060.09;;;-144.39;89.97
74529;BME280;63009;52.584;5.932;2024-02-16T12:15:48;50026.00;;;-144.39;89.15
74529;BME280;63009;52.584;5.932;2024-02-16T12:18:32;50024.00;;;-144.39;89.29
74529;BME280;63009;52.584;5.932;2024-02-16T12:20:58;50028.03;;;-144.39;89.32
74529;BME280;63009;52.584;5.932;2024-02-16T12:23:24;50038.03;;;-144.39;89.15
74529;BME280;63009;52.584;5.932;2024-02-16T12:25:49;50032.03;;;-144.39;89.30
74529;BME280;63009;52.584;5.932;2024-02-16T12:28:15;50036.03;;;-144.39;89.52
74529;BME280;63009;52.584;5.932;2024-02-16T12:30:40;50030.03;;;-144.39;89.55
74529;BME280;63009;52.584;5.932;2024-02-16T12:33:05;50028.03;;;-144.39;89.69
74529;BME280;63009;52.584;5.932;2024-02-16T12:35:31;50007.97;;;-144.39;89.45